Maratha Promise — V7YE5 — position and weather

sailwx.info

Track history (hours):
 
Tides and Currents Weather Stations Pressure Air Temp Water Temp Dewpoint Dewpoint Depression Visibility Wind Speed Wind Dir Waves Ship Positions

Maratha Promise

Last reported at 2017-Jun-07 04:22 UTC. Time now 2017-Jun-24 05:19 UTC.
Position N 46°27' W 128°54'.
Warning: this ship's position is 17 days out of date.

Length 178 m; draft 11 m.

Type: Cargo ship. MMSI: 538004641.

Date/timePositionNaut miles runAvg speedWind from/ knotsBaromVisibWave heightAir tempDewpointWater temp
2017-Jun-07 04:22N 46°27' W 128°54'5 9.9
2017-Jun-07 03:53N 46°27' W 128°47'410.0
2017-Jun-07 03:29N 46°27' W 128°41'1810.0
2017-Jun-07 01:43N 46°27' W 128°15'14 9.9
2017-Jun-07 00:21N 46°27' W 127°56'810.1
2017-Jun-06 23:33N 46°28' W 127°44'3 9.7
2017-Jun-06 23:15N 46°28' W 127°40'4 9.6
2017-Jun-06 22:48N 46°28' W 127°34'3 9.7
2017-Jun-06 22:30N 46°28' W 127°29'5 9.7
2017-Jun-06 22:00N 46°28' W 127°22'5 9.9
2017-Jun-06 21:30N 46°28' W 127°15'510.1
2017-Jun-06 21:00N 46°28' W 127°08'5 9.8
2017-Jun-06 20:30N 46°28' W 127°01'5 9.3
2017-Jun-06 20:01N 46°28' W 126°54'510.0
2017-Jun-06 19:30N 46°28' W 126°47'510.3
2017-Jun-06 19:00N 46°28' W 126°39'510.9
2017-Jun-06 18:30N 46°28' W 126°31'511.1
2017-Jun-06 18:00N 46°29' W 126°23'5 7.3
2017-Jun-06 17:21N 46°26' W 126°18'410.8
2017-Jun-06 16:57N 46°22' W 126°17'510.8
2017-Jun-06 16:26N 46°16' W 126°16'5 9.4
2017-Jun-06 15:57N 46°15' W 126°10'611.5
2017-Jun-06 15:26N 46°15' W 126°01'511.3
2017-Jun-06 15:00N 46°15' W 125°54'611.2
2017-Jun-06 14:30N 46°15' W 125°46'1411.1
2017-Jun-06 13:12N 46°15' W 125°25'1454.0
2017-Jun-06 12:57N 46°15' W 125°05'510.3
2017-Jun-06 12:30N 46°15' W 124°59'611.2
2017-Jun-06 12:00N 46°15' W 125°07'611.0
2017-Jun-06 11:30N 46°15' W 124°59'1529.8
2017-Jun-06 10:59N 46°14' W 124°37'4 9.1
2017-Jun-06 10:30N 46°14' W 124°43'510.7
2017-Jun-06 10:00N 46°14' W 124°35'510.5
2017-Jun-06 09:30N 46°13' W 124°28'510.6
2017-Jun-06 09:00N 46°12' W 124°20'1631.6
2017-Jun-06 08:30N 46°13' W 123°58'611.8
2017-Jun-06 08:00N 46°15' W 124°06'611.4
2017-Jun-06 07:30N 46°13' W 123°58'5 9.4
2017-Jun-06 07:00N 46°12' W 123°51'4 8.7
2017-Jun-06 06:30N 46°13' W 123°46'611.4
2017-Jun-06 06:00N 46°16' W 123°38'510.6
2017-Jun-06 05:30N 46°16' W 123°31'5 9.9
2017-Jun-06 05:00N 46°13' W 123°26'510.4
2017-Jun-06 04:30N 46°09' W 123°21'714.1
2017-Jun-06 04:01N 46°11' W 123°11'713.2
2017-Jun-06 03:31N 46°09' W 123°02'510.8
2017-Jun-06 03:00N 46°06' W 122°56'510.6
2017-Jun-06 02:30N 46°01' W 122°52'611.0
2017-Jun-06 02:00N 45°56' W 122°48'612.8
2017-Jun-06 01:30N 45°50' W 122°48'713.0
2017-Jun-06 01:00N 45°43' W 122°46'5 9.7
2017-Jun-06 00:30N 45°39' W 122°46'0 0.2
2017-Jun-05 23:58N 45°39' W 122°46'0 0.0
2017-Jun-05 23:28N 45°39' W 122°46'0 0.0
2017-Jun-05 22:58N 45°39' W 122°46'0 0.0
2017-Jun-05 22:25N 45°39' W 122°46'0 0.0
2017-Jun-05 21:58N 45°39' W 122°46'0 0.0
2017-Jun-05 21:28N 45°39' W 122°46'0 0.0
2017-Jun-05 20:58N 45°39' W 122°46'0 0.0
2017-Jun-05 20:22N 45°39' W 122°46'0 0.0
2017-Jun-05 19:58N 45°39' W 122°46'0 0.0
2017-Jun-05 19:28N 45°39' W 122°46'0 0.0
2017-Jun-05 18:58N 45°39' W 122°46'0 0.0
2017-Jun-05 18:25N 45°39' W 122°46'0 0.1
2017-Jun-05 17:58N 45°39' W 122°46'0 0.1
2017-Jun-05 17:22N 45°39' W 122°46'0 0.0
2017-Jun-05 16:58N 45°39' W 122°46'0 0.0
2017-Jun-05 16:28N 45°39' W 122°46'0 0.0
2017-Jun-05 15:58N 45°39' W 122°46'0 0.0
2017-Jun-05 15:28N 45°39' W 122°46'0 0.0
2017-Jun-05 14:58N 45°39' W 122°46'0 0.0
2017-Jun-05 13:58N 45°39' W 122°46'0 0.0
2017-Jun-05 13:25N 45°39' W 122°46'0 0.0
2017-Jun-05 12:52N 45°39' W 122°46'0 0.1
2017-Jun-05 12:28N 45°39' W 122°46'0 0.1
2017-Jun-05 11:58N 45°39' W 122°46'0 0.0
2017-Jun-05 11:28N 45°39' W 122°46'0 0.0
2017-Jun-05 10:58N 45°39' W 122°46'0 0.0
2017-Jun-05 10:28N 45°39' W 122°46'0 0.0
2017-Jun-05 09:58N 45°39' W 122°46'0 0.0
2017-Jun-05 09:28N 45°39' W 122°46'0 0.0
2017-Jun-05 08:58N 45°39' W 122°46'0 0.0
2017-Jun-05 08:28N 45°39' W 122°46'0 0.0
2017-Jun-05 07:58N 45°39' W 122°46'0 0.0
2017-Jun-05 07:28N 45°39' W 122°46'0 0.0
2017-Jun-05 06:58N 45°39' W 122°46'0 0.0
2017-Jun-05 06:28N 45°39' W 122°46'0 0.0
2017-Jun-05 05:52N 45°39' W 122°46'0 0.0
2017-Jun-05 05:28N 45°39' W 122°46'0 0.0
2017-Jun-05 04:55N 45°39' W 122°46'0 0.0
2017-Jun-05 04:25N 45°39' W 122°46'0 0.0
2017-Jun-05 03:55N 45°39' W 122°46'0 0.0
2017-Jun-05 03:28N 45°39' W 122°46'0 0.0
2017-Jun-05 02:13N 45°38' W 122°46'0 0.2
2017-Jun-05 01:58N 45°39' W 122°46'0 0.0
2017-Jun-05 01:28N 45°39' W 122°46'0 0.0
2017-Jun-05 00:52N 45°39' W 122°46'0 0.1
2017-Jun-05 00:16N 45°39' W 122°46'0 0.0
2017-Jun-04 23:58N 45°39' W 122°46'0 0.0
2017-Jun-04 23:28N 45°39' W 122°46'0 0.0
2017-Jun-04 22:58N 45°39' W 122°46'0 0.0
2017-Jun-04 22:28N 45°39' W 122°46'0 0.0
2017-Jun-04 21:58N 45°39' W 122°46'0 0.0
2017-Jun-04 21:28N 45°39' W 122°46'0 0.0
2017-Jun-04 20:58N 45°39' W 122°46'0 0.0
2017-Jun-04 20:25N 45°39' W 122°46'0 0.0
2017-Jun-04 19:52N 45°39' W 122°46'0 0.0
2017-Jun-04 19:28N 45°39' W 122°46'0 0.1
2017-Jun-04 18:58N 45°39' W 122°46'0 0.0
2017-Jun-04 18:28N 45°39' W 122°46'0 0.0
2017-Jun-04 17:58N 45°39' W 122°46'0 0.0
2017-Jun-04 17:28N 45°39' W 122°46'0 0.0
2017-Jun-04 16:55N 45°39' W 122°46'0 0.0
2017-Jun-04 16:22N 45°39' W 122°46'0 0.1
2017-Jun-04 15:46N 45°39' W 122°46'0 0.0
2017-Jun-04 15:28N 45°39' W 122°46'0 0.0
2017-Jun-04 14:58N 45°39' W 122°46'0 0.0
2017-Jun-04 13:58N 45°39' W 122°46'0 0.0
2017-Jun-04 13:28N 45°39' W 122°46'0 0.0
2017-Jun-04 12:55N 45°39' W 122°46'0 0.0
2017-Jun-04 12:28N 45°39' W 122°46'0 0.0
2017-Jun-04 11:58N 45°39' W 122°46'0 0.0
2017-Jun-04 11:22N 45°39' W 122°46'0 0.0
2017-Jun-04 10:55N 45°39' W 122°46'0 0.0
2017-Jun-04 10:28N 45°39' W 122°46'0 0.0
2017-Jun-04 09:55N 45°39' W 122°46'0 0.0
2017-Jun-04 09:25N 45°39' W 122°46'0 0.0
2017-Jun-04 08:58N 45°39' W 122°46'0 0.0
2017-Jun-04 08:28N 45°39' W 122°46'0 0.0
2017-Jun-04 07:58N 45°39' W 122°46'0 0.0
2017-Jun-04 07:25N 45°39' W 122°46'0 0.0
2017-Jun-04 06:55N 45°39' W 122°46'0 0.0
2017-Jun-04 06:28N 45°39' W 122°46'0 0.0
2017-Jun-04 05:55N 45°39' W 122°46'0 0.0
2017-Jun-04 05:25N 45°39' W 122°46'0 0.0
2017-Jun-04 04:58N 45°39' W 122°46'0 0.0
2017-Jun-04 04:28N 45°39' W 122°46'0 0.0
2017-Jun-04 03:49N 45°39' W 122°46'0 0.0
2017-Jun-04 03:28N 45°39' W 122°46'0 0.0
2017-Jun-04 02:58N 45°39' W 122°46'0 0.0
2017-Jun-04 01:46N 45°39' W 122°46'0 0.1
2017-Jun-04 01:28N 45°39' W 122°46'0 0.1
2017-Jun-04 00:58N 45°39' W 122°46'0 0.0
2017-Jun-04 00:28N 45°39' W 122°46'0 0.0
2017-Jun-03 23:52N 45°39' W 122°46'0 0.1
2017-Jun-03 23:25N 45°39' W 122°46'0 0.1
2017-Jun-03 22:58N 45°39' W 122°46'0 0.1
2017-Jun-03 22:28N 45°39' W 122°46'0 0.1
2017-Jun-03 21:55N 45°39' W 122°46'2 3.8
2017-Jun-03 21:30N 45°40' W 122°46'3 4.8
2017-Jun-03 20:58N 45°43' W 122°46'0 0.2
2017-Jun-03 20:28N 45°43' W 122°46'0 0.0
2017-Jun-03 19:58N 45°43' W 122°46'0 0.0
2017-Jun-03 19:28N 45°43' W 122°46'0 0.0
2017-Jun-03 18:58N 45°43' W 122°46'0 0.0
2017-Jun-03 18:28N 45°43' W 122°46'0 0.0
2017-Jun-03 17:58N 45°43' W 122°46'0 0.0
2017-Jun-03 17:22N 45°43' W 122°46'0 0.0
2017-Jun-03 16:58N 45°43' W 122°46'0 0.0
2017-Jun-03 16:28N 45°43' W 122°46'0 0.0
2017-Jun-03 15:58N 45°43' W 122°46'0 0.0
2017-Jun-03 15:28N 45°43' W 122°46'0 0.0
2017-Jun-03 14:58N 45°43' W 122°46'0 0.0
2017-Jun-03 13:55N 45°43' W 122°46'0 0.0
2017-Jun-03 13:28N 45°43' W 122°46'0 0.0
2017-Jun-03 12:58N 45°43' W 122°46'0 0.0
2017-Jun-03 12:28N 45°43' W 122°46'0 0.0
2017-Jun-03 11:49N 45°43' W 122°46'0 0.0
2017-Jun-03 11:28N 45°43' W 122°46'0 0.0
2017-Jun-03 10:58N 45°43' W 122°46'0 0.0
2017-Jun-03 10:28N 45°43' W 122°46'0 0.0
2017-Jun-03 09:58N 45°43' W 122°46'0 0.0
2017-Jun-03 09:28N 45°43' W 122°46'0 0.0
2017-Jun-03 08:58N 45°43' W 122°46'0 0.0
2017-Jun-03 08:28N 45°43' W 122°46'0 0.0
2017-Jun-03 07:58N 45°43' W 122°46'0 0.0
2017-Jun-03 07:28N 45°43' W 122°46'0 0.0
2017-Jun-03 06:58N 45°43' W 122°46'0 0.0
2017-Jun-03 06:28N 45°43' W 122°46'0 0.0
2017-Jun-03 05:58N 45°43' W 122°46'0 0.0
2017-Jun-03 05:19N 45°43' W 122°46'0 0.0
2017-Jun-03 04:58N 45°43' W 122°46'0 0.0
2017-Jun-03 04:25N 45°43' W 122°46'0 0.0
2017-Jun-03 03:55N 45°43' W 122°46'0 0.0
2017-Jun-03 03:28N 45°43' W 122°46'0 0.0
2017-Jun-03 02:55N 45°43' W 122°46'0 0.0
2017-Jun-03 02:28N 45°43' W 122°46'0 0.0
2017-Jun-03 01:58N 45°43' W 122°46'0 0.0
2017-Jun-03 01:28N 45°43' W 122°46'0 0.0
2017-Jun-03 00:55N 45°43' W 122°46'0 0.0
2017-Jun-03 00:19N 45°43' W 122°46'0 0.0
2017-Jun-02 23:58N 45°43' W 122°46'0 0.0
2017-Jun-02 23:28N 45°43' W 122°46'0 0.0
2017-Jun-02 22:55N 45°43' W 122°46'0 0.0
2017-Jun-02 22:22N 45°43' W 122°46'0 0.0
2017-Jun-02 21:58N 45°43' W 122°46'0 0.0
2017-Jun-02 21:28N 45°43' W 122°46'0 0.0
2017-Jun-02 20:58N 45°43' W 122°46'0 0.0
2017-Jun-02 20:28N 45°43' W 122°46'0 0.0
2017-Jun-02 19:58N 45°43' W 122°46'0 0.0
2017-Jun-02 19:28N 45°43' W 122°46'0 0.0
2017-Jun-02 18:58N 45°43' W 122°46'0 0.0
2017-Jun-02 18:28N 45°43' W 122°46'0 0.0
2017-Jun-02 17:58N 45°43' W 122°46'0 0.0
2017-Jun-02 17:28N 45°43' W 122°46'0 0.0
2017-Jun-02 16:58N 45°43' W 122°46'0 0.0
2017-Jun-02 16:28N 45°43' W 122°46'0 0.0
2017-Jun-02 15:58N 45°43' W 122°46'0 0.0
2017-Jun-02 15:28N 45°43' W 122°46'0 0.0
2017-Jun-02 14:52N 45°43' W 122°46'0 0.0
2017-Jun-02 14:28N 45°43' W 122°46'0 0.0
2017-Jun-02 13:25N 45°43' W 122°46'0 0.0
2017-Jun-02 12:55N 45°43' W 122°46'0 0.0
2017-Jun-02 12:28N 45°43' W 122°46'0 0.0
2017-Jun-02 11:58N 45°43' W 122°46'0 0.0
2017-Jun-02 11:25N 45°43' W 122°46'0 0.0
2017-Jun-02 10:58N 45°43' W 122°46'0 0.0
2017-Jun-02 10:28N 45°43' W 122°46'0 0.0
2017-Jun-02 09:55N 45°43' W 122°46'0 0.0
2017-Jun-02 09:28N 45°43' W 122°46'0 0.0
2017-Jun-02 08:58N 45°43' W 122°46'0 0.0
2017-Jun-02 08:28N 45°43' W 122°46'0 0.0
2017-Jun-02 07:58N 45°43' W 122°46'0 0.0
2017-Jun-02 07:25N 45°43' W 122°46'0 0.0
2017-Jun-02 06:58N 45°43' W 122°46'0 0.0
2017-Jun-02 06:28N 45°43' W 122°46'0 0.0
2017-Jun-02 05:58N 45°43' W 122°46'0 0.0
2017-Jun-02 05:28N 45°43' W 122°46'0 0.0
2017-Jun-02 04:58N 45°43' W 122°46'0 0.0
2017-Jun-02 04:28N 45°43' W 122°46'0 0.0
2017-Jun-02 03:52N 45°43' W 122°46'0 0.0
2017-Jun-02 03:25N 45°43' W 122°46'0 0.0
2017-Jun-02 02:58N 45°43' W 122°46'0 0.0
2017-Jun-02 02:28N 45°43' W 122°46'0 0.0
2017-Jun-02 01:55N 45°43' W 122°46'0 0.0
2017-Jun-02 01:28N 45°43' W 122°46'0 0.0
2017-Jun-02 00:58N 45°43' W 122°46'0 0.0
2017-Jun-02 00:28N 45°43' W 122°46'0 0.0
2017-Jun-01 23:58N 45°43' W 122°46'0 0.0
2017-Jun-01 23:28N 45°43' W 122°46'0 0.0
2017-Jun-01 22:55N 45°43' W 122°46'0 0.0
2017-Jun-01 22:28N 45°43' W 122°46'0 0.0
2017-Jun-01 21:58N 45°43' W 122°46'0 0.0
2017-Jun-01 21:22N 45°43' W 122°46'0 0.0
2017-Jun-01 20:58N 45°43' W 122°46'0 0.0
2017-Jun-01 20:28N 45°43' W 122°46'0 0.0
2017-Jun-01 19:58N 45°43' W 122°46'0 0.0
2017-Jun-01 19:25N 45°43' W 122°46'0 0.0
2017-Jun-01 18:58N 45°43' W 122°46'0 0.0
2017-Jun-01 18:28N 45°43' W 122°46'0 0.1
2017-Jun-01 17:58N 45°43' W 122°46'0 0.1
2017-Jun-01 17:25N 45°43' W 122°46'0 0.0
2017-Jun-01 16:55N 45°43' W 122°46'0 0.0
2017-Jun-01 16:28N 45°43' W 122°46'0 0.0
2017-Jun-01 15:58N 45°43' W 122°46'0 0.0
2017-Jun-01 15:28N 45°43' W 122°46'0 0.0
2017-Jun-01 14:58N 45°43' W 122°46'0 0.0
2017-Jun-01 13:58N 45°43' W 122°46'0 0.0
2017-Jun-01 13:28N 45°43' W 122°46'0 0.0
2017-Jun-01 13:00N 45°43' W 122°46'0 0.0
2017-Jun-01 12:28N 45°43' W 122°46'0 0.1
2017-Jun-01 11:58N 45°43' W 122°46'0 0.1
2017-Jun-01 11:28N 45°43' W 122°46'0 0.0
2017-Jun-01 10:58N 45°43' W 122°46'0 0.0
2017-Jun-01 10:28N 45°43' W 122°46'0 0.0
2017-Jun-01 09:58N 45°43' W 122°46'0 0.0
2017-Jun-01 09:22N 45°43' W 122°46'0 0.0
2017-Jun-01 08:58N 45°43' W 122°46'0 0.0
2017-Jun-01 08:28N 45°43' W 122°46'0 0.0
2017-Jun-01 07:55N 45°43' W 122°46'0 0.0
2017-Jun-01 07:28N 45°43' W 122°46'0 0.0
2017-Jun-01 06:58N 45°43' W 122°46'0 0.1
2017-Jun-01 06:28N 45°43' W 122°46'0 0.1
2017-Jun-01 05:58N 45°43' W 122°46'0 0.0
2017-Jun-01 05:28N 45°43' W 122°46'0 0.0
2017-Jun-01 04:58N 45°43' W 122°46'0 0.0
2017-Jun-01 04:28N 45°43' W 122°46'0 0.0
2017-Jun-01 03:58N 45°43' W 122°46'0 0.0
2017-Jun-01 03:25N 45°43' W 122°46'0 0.0
2017-Jun-01 02:58N 45°43' W 122°46'0 0.0
2017-Jun-01 02:28N 45°43' W 122°46'0 0.0
2017-Jun-01 01:58N 45°43' W 122°46'0 0.0
2017-Jun-01 01:28N 45°43' W 122°46'0 0.0
2017-Jun-01 00:58N 45°43' W 122°46'0 0.0
2017-Jun-01 00:28N 45°43' W 122°46'0 0.0
2017-May-31 23:58N 45°43' W 122°46'0 0.0
2017-May-31 23:25N 45°43' W 122°46'0 0.0
2017-May-31 22:58N 45°43' W 122°46'0 0.0
2017-May-31 22:28N 45°43' W 122°46'0 0.0
2017-May-31 21:58N 45°43' W 122°46'0 0.0
2017-May-31 21:28N 45°43' W 122°46'0 0.0
2017-May-31 20:58N 45°43' W 122°46'0 0.0
2017-May-31 20:28N 45°43' W 122°46'0 0.0
2017-May-31 19:55N 45°43' W 122°46'0 0.0
2017-May-31 19:30N 45°43' W 122°46'0 0.4
2017-May-31 19:01N 45°43' W 122°46'4 8.6
2017-May-31 18:30N 45°47' W 122°47'5 9.7
2017-May-31 18:01N 45°52' W 122°47'510.0
2017-May-31 17:30N 45°57' W 122°48'5 9.5
2017-May-31 17:01N 46°01' W 122°52'1 0.9
2017-May-31 16:25N 46°02' W 122°52'0 0.0
2017-May-31 15:58N 46°02' W 122°52'0 0.0
2017-May-31 15:25N 46°02' W 122°52'0 0.0
2017-May-31 14:58N 46°02' W 122°52'0 0.0
2017-May-31 13:58N 46°02' W 122°52'0 0.0
2017-May-31 13:28N 46°02' W 122°52'0 0.0
2017-May-31 12:58N 46°02' W 122°52'0 0.0
2017-May-31 12:28N 46°02' W 122°52'0 0.0
2017-May-31 11:55N 46°02' W 122°52'0 0.0
2017-May-31 11:25N 46°02' W 122°52'0 0.0
2017-May-31 10:58N 46°02' W 122°52'0 0.0
2017-May-31 10:25N 46°02' W 122°52'0 0.0
2017-May-31 09:58N 46°02' W 122°52'0 0.0
2017-May-31 09:28N 46°02' W 122°52'0 0.0
2017-May-31 08:58N 46°02' W 122°52'0 0.0
2017-May-31 08:28N 46°02' W 122°52'0 0.0
2017-May-31 07:58N 46°02' W 122°52'0 0.0
2017-May-31 07:28N 46°02' W 122°52'0 0.0
2017-May-31 06:58N 46°02' W 122°52'0 0.0
2017-May-31 06:28N 46°02' W 122°52'0 0.0
2017-May-31 05:58N 46°02' W 122°52'0 0.0
2017-May-31 05:28N 46°02' W 122°52'0 0.0
2017-May-31 04:55N 46°02' W 122°52'0 0.0
2017-May-31 04:28N 46°02' W 122°52'0 0.0
2017-May-31 03:58N 46°02' W 122°52'0 0.0
2017-May-31 03:28N 46°02' W 122°52'0 0.0
2017-May-31 02:58N 46°02' W 122°52'0 0.0
2017-May-31 02:25N 46°02' W 122°52'0 0.0
2017-May-31 01:58N 46°02' W 122°52'0 0.0
2017-May-31 01:28N 46°02' W 122°52'0 0.0
2017-May-31 00:58N 46°02' W 122°52'1 2.6
2017-May-31 00:30N 46°03' W 122°53'4 8.0
2017-May-31 00:00N 46°06' W 122°57'5 9.1
2017-May-30 23:30N 46°09' W 123°02'510.5
2017-May-30 23:00N 46°11' W 123°08'5 9.8
2017-May-30 22:31N 46°10' W 123°15'510.0
2017-May-30 22:00N 46°09' W 123°22'4 8.1
2017-May-30 21:31N 46°12' W 123°26'5 9.5
2017-May-30 21:01N 46°16' W 123°28'510.6
2017-May-30 20:30N 46°15' W 123°36'510.0
2017-May-30 20:01N 46°14' W 123°43'5 7.7
2017-May-30 19:25N 46°12' W 123°49'0 0.2
2017-May-30 18:58N 46°12' W 123°49'0 0.0
2017-May-30 18:25N 46°12' W 123°49'0 0.0
2017-May-30 17:58N 46°12' W 123°49'0 0.0
2017-May-30 17:28N 46°12' W 123°49'0 0.0
2017-May-30 16:58N 46°12' W 123°49'0 0.0
2017-May-30 16:28N 46°12' W 123°49'0 0.0
2017-May-30 15:58N 46°12' W 123°49'0 0.0
2017-May-30 15:28N 46°12' W 123°49'0 0.0
2017-May-30 14:58N 46°12' W 123°49'0 0.0
2017-May-30 13:55N 46°12' W 123°49'0 0.0
2017-May-30 13:28N 46°12' W 123°49'0 0.2
2017-May-30 12:58N 46°12' W 123°49'0 0.3
2017-May-30 12:28N 46°12' W 123°48'0 0.1
2017-May-30 11:58N 46°12' W 123°48'0 0.0
2017-May-30 11:28N 46°12' W 123°48'0 0.0
2017-May-30 10:58N 46°12' W 123°48'0 0.0
2017-May-30 10:28N 46°12' W 123°48'0 0.0
2017-May-30 09:58N 46°12' W 123°48'0 0.0
2017-May-30 09:28N 46°12' W 123°48'0 0.0
2017-May-30 08:58N 46°12' W 123°48'0 0.2
2017-May-30 08:25N 46°12' W 123°48'0 0.2
2017-May-30 07:58N 46°12' W 123°49'0 0.0
2017-May-30 07:28N 46°12' W 123°49'0 0.0
2017-May-30 06:58N 46°12' W 123°49'0 0.1
2017-May-30 06:28N 46°12' W 123°49'0 0.0
2017-May-30 05:58N 46°12' W 123°49'0 0.0
2017-May-30 05:28N 46°12' W 123°49'0 0.0
2017-May-30 04:55N 46°12' W 123°49'0 0.0
2017-May-30 04:28N 46°12' W 123°49'0 0.1
2017-May-30 03:58N 46°12' W 123°49'0 0.0
2017-May-30 03:28N 46°12' W 123°49'0 0.0
2017-May-30 02:58N 46°12' W 123°49'0 0.0
2017-May-30 02:28N 46°12' W 123°49'0 0.1
2017-May-30 01:58N 46°12' W 123°49'0 0.3
2017-May-30 01:28N 46°12' W 123°48'0 0.2
2017-May-30 00:58N 46°12' W 123°48'0 0.0
2017-May-30 00:28N 46°12' W 123°48'0 0.0
2017-May-29 23:58N 46°12' W 123°48'0 0.0
2017-May-29 23:28N 46°12' W 123°48'0 0.1
2017-May-29 22:58N 46°12' W 123°48'0 0.0
2017-May-29 22:25N 46°12' W 123°48'0 0.1
2017-May-29 21:58N 46°12' W 123°48'0 0.1
2017-May-29 21:28N 46°12' W 123°48'0 0.0
2017-May-29 20:58N 46°12' W 123°48'0 0.3
2017-May-29 20:28N 46°12' W 123°49'0 0.1
2017-May-29 19:58N 46°12' W 123°49'0 0.0
2017-May-29 19:28N 46°12' W 123°49'0 0.1
2017-May-29 18:58N 46°12' W 123°49'0 0.0
2017-May-29 18:25N 46°12' W 123°49'0 0.0
2017-May-29 17:58N 46°12' W 123°49'0 0.0
2017-May-29 17:28N 46°12' W 123°49'0 0.0
2017-May-29 16:58N 46°12' W 123°49'0 0.0
2017-May-29 16:28N 46°12' W 123°49'0 0.0
2017-May-29 15:58N 46°12' W 123°49'0 0.0
2017-May-29 15:28N 46°12' W 123°49'0 0.0
2017-May-29 14:58N 46°12' W 123°49'0 0.0
2017-May-29 13:58N 46°12' W 123°49'0 0.0
2017-May-29 13:28N 46°12' W 123°49'0 0.0
2017-May-29 12:58N 46°12' W 123°49'0 0.1
2017-May-29 12:28N 46°12' W 123°49'0 0.1
2017-May-29 11:58N 46°12' W 123°49'0 0.3
2017-May-29 11:28N 46°12' W 123°48'0 0.1
2017-May-29 10:58N 46°12' W 123°48'0 0.0
2017-May-29 10:28N 46°12' W 123°48'0 0.0
2017-May-29 09:58N 46°12' W 123°48'0 0.0
2017-May-29 09:28N 46°12' W 123°48'0 0.0
2017-May-29 08:58N 46°12' W 123°48'0 0.0
2017-May-29 08:28N 46°12' W 123°48'0 0.0
2017-May-29 07:58N 46°12' W 123°48'0 0.1
2017-May-29 07:28N 46°12' W 123°48'0 0.3
2017-May-29 06:58N 46°12' W 123°49'0 0.1
2017-May-29 06:28N 46°12' W 123°49'0 0.0
2017-May-29 05:58N 46°12' W 123°49'0 0.0
2017-May-29 05:28N 46°12' W 123°49'0 0.1
2017-May-29 04:58N 46°12' W 123°49'0 0.0
2017-May-29 04:28N 46°12' W 123°49'0 0.1
2017-May-29 03:58N 46°12' W 123°49'0 0.1
2017-May-29 03:28N 46°12' W 123°49'0 0.0
2017-May-29 02:58N 46°12' W 123°49'0 0.1
2017-May-29 02:28N 46°12' W 123°49'0 0.0
2017-May-29 01:58N 46°12' W 123°49'0 0.0
2017-May-29 01:28N 46°12' W 123°49'0 0.2
2017-May-29 00:58N 46°12' W 123°48'0 0.3
2017-May-29 00:28N 46°12' W 123°48'0 0.0
2017-May-28 23:58N 46°12' W 123°48'0 0.0
2017-May-28 23:28N 46°12' W 123°48'0 0.0
2017-May-28 22:58N 46°12' W 123°48'0 0.0
2017-May-28 22:28N 46°12' W 123°48'0 0.0
2017-May-28 21:58N 46°12' W 123°48'0 0.1
2017-May-28 21:28N 46°12' W 123°48'0 0.1
2017-May-28 20:58N 46°12' W 123°48'0 0.0
2017-May-28 20:28N 46°12' W 123°48'0 0.1
2017-May-28 19:58N 46°12' W 123°48'0 0.3
2017-May-28 19:28N 46°12' W 123°49'0 0.1
2017-May-28 18:58N 46°12' W 123°49'0 0.0
2017-May-28 18:28N 46°12' W 123°49'0 0.0
2017-May-28 17:58N 46°12' W 123°49'0 0.0
2017-May-28 17:28N 46°12' W 123°49'0 0.0
2017-May-28 16:58N 46°12' W 123°49'0 0.0
2017-May-28 16:28N 46°12' W 123°49'0 0.0
2017-May-28 15:58N 46°12' W 123°49'0 0.0
2017-May-28 15:28N 46°12' W 123°49'0 0.0
2017-May-28 14:58N 46°12' W 123°49'0 0.0
2017-May-28 13:58N 46°12' W 123°49'0 0.0
2017-May-28 13:25N 46°12' W 123°49'0 0.0
2017-May-28 12:58N 46°12' W 123°49'0 0.1
2017-May-28 12:28N 46°12' W 123°49'0 0.0
2017-May-28 11:58N 46°12' W 123°49'0 0.1
2017-May-28 11:28N 46°12' W 123°49'0 0.3
2017-May-28 10:55N 46°12' W 123°48'0 0.1
2017-May-28 10:28N 46°12' W 123°48'0 0.1
2017-May-28 09:58N 46°12' W 123°48'0 0.0
2017-May-28 09:28N 46°12' W 123°48'0 0.0
2017-May-28 08:58N 46°12' W 123°48'0 0.0
2017-May-28 08:28N 46°12' W 123°48'0 0.0
2017-May-28 07:58N 46°12' W 123°48'0 0.0
2017-May-28 07:28N 46°12' W 123°48'0 0.0
2017-May-28 06:58N 46°12' W 123°48'0 0.0
2017-May-28 06:25N 46°12' W 123°48'0 0.3
2017-May-28 05:58N 46°12' W 123°49'0 0.1
2017-May-28 05:28N 46°12' W 123°49'0 0.1
2017-May-28 04:58N 46°12' W 123°49'0 0.0
2017-May-28 04:28N 46°12' W 123°49'  
Track history (hours):
 
Tides and Currents Weather Stations Pressure Air Temp Water Temp Dewpoint Dewpoint Depression Visibility Wind Speed Wind Dir Waves Ship Positions

Maratha Promise

Last reported at 2017-Jun-07 04:22 UTC. Time now 2017-Jun-24 05:19 UTC.
Position N 46°27' W 128°54'.
Warning: this ship's position is 17 days out of date.

Length 178 m; draft 11 m.

Type: Cargo ship. MMSI: 538004641.

Date/timePositionNaut miles runAvg speedWind from/ knotsBaromVisibWave heightAir tempDewpointWater temp
2017-Jun-07 04:22N 46°27' W 128°54'5 9.9
2017-Jun-07 03:53N 46°27' W 128°47'410.0
2017-Jun-07 03:29N 46°27' W 128°41'1810.0
2017-Jun-07 01:43N 46°27' W 128°15'14 9.9
2017-Jun-07 00:21N 46°27' W 127°56'810.1
2017-Jun-06 23:33N 46°28' W 127°44'3 9.7
2017-Jun-06 23:15N 46°28' W 127°40'4 9.6
2017-Jun-06 22:48N 46°28' W 127°34'3 9.7
2017-Jun-06 22:30N 46°28' W 127°29'5 9.7
2017-Jun-06 22:00N 46°28' W 127°22'5 9.9
2017-Jun-06 21:30N 46°28' W 127°15'510.1
2017-Jun-06 21:00N 46°28' W 127°08'5 9.8
2017-Jun-06 20:30N 46°28' W 127°01'5 9.3
2017-Jun-06 20:01N 46°28' W 126°54'510.0
2017-Jun-06 19:30N 46°28' W 126°47'510.3
2017-Jun-06 19:00N 46°28' W 126°39'510.9
2017-Jun-06 18:30N 46°28' W 126°31'511.1
2017-Jun-06 18:00N 46°29' W 126°23'5 7.3
2017-Jun-06 17:21N 46°26' W 126°18'410.8
2017-Jun-06 16:57N 46°22' W 126°17'510.8
2017-Jun-06 16:26N 46°16' W 126°16'5 9.4
2017-Jun-06 15:57N 46°15' W 126°10'611.5
2017-Jun-06 15:26N 46°15' W 126°01'511.3
2017-Jun-06 15:00N 46°15' W 125°54'611.2
2017-Jun-06 14:30N 46°15' W 125°46'1411.1
2017-Jun-06 13:12N 46°15' W 125°25'1454.0
2017-Jun-06 12:57N 46°15' W 125°05'510.3
2017-Jun-06 12:30N 46°15' W 124°59'611.2
2017-Jun-06 12:00N 46°15' W 125°07'611.0
2017-Jun-06 11:30N 46°15' W 124°59'1529.8
2017-Jun-06 10:59N 46°14' W 124°37'4 9.1
2017-Jun-06 10:30N 46°14' W 124°43'510.7
2017-Jun-06 10:00N 46°14' W 124°35'510.5
2017-Jun-06 09:30N 46°13' W 124°28'510.6
2017-Jun-06 09:00N 46°12' W 124°20'1631.6
2017-Jun-06 08:30N 46°13' W 123°58'611.8
2017-Jun-06 08:00N 46°15' W 124°06'611.4
2017-Jun-06 07:30N 46°13' W 123°58'5 9.4
2017-Jun-06 07:00N 46°12' W 123°51'4 8.7
2017-Jun-06 06:30N 46°13' W 123°46'611.4
2017-Jun-06 06:00N 46°16' W 123°38'510.6
2017-Jun-06 05:30N 46°16' W 123°31'5 9.9
2017-Jun-06 05:00N 46°13' W 123°26'510.4
2017-Jun-06 04:30N 46°09' W 123°21'714.1
2017-Jun-06 04:01N 46°11' W 123°11'713.2
2017-Jun-06 03:31N 46°09' W 123°02'510.8
2017-Jun-06 03:00N 46°06' W 122°56'510.6
2017-Jun-06 02:30N 46°01' W 122°52'611.0
2017-Jun-06 02:00N 45°56' W 122°48'612.8
2017-Jun-06 01:30N 45°50' W 122°48'713.0
2017-Jun-06 01:00N 45°43' W 122°46'5 9.7
2017-Jun-06 00:30N 45°39' W 122°46'0 0.2
2017-Jun-05 23:58N 45°39' W 122°46'0 0.0
2017-Jun-05 23:28N 45°39' W 122°46'0 0.0
2017-Jun-05 22:58N 45°39' W 122°46'0 0.0
2017-Jun-05 22:25N 45°39' W 122°46'0 0.0
2017-Jun-05 21:58N 45°39' W 122°46'0 0.0
2017-Jun-05 21:28N 45°39' W 122°46'0 0.0
2017-Jun-05 20:58N 45°39' W 122°46'0 0.0
2017-Jun-05 20:22N 45°39' W 122°46'0 0.0
2017-Jun-05 19:58N 45°39' W 122°46'0 0.0
2017-Jun-05 19:28N 45°39' W 122°46'0 0.0
2017-Jun-05 18:58N 45°39' W 122°46'0 0.0
2017-Jun-05 18:25N 45°39' W 122°46'0 0.1
2017-Jun-05 17:58N 45°39' W 122°46'0 0.1
2017-Jun-05 17:22N 45°39' W 122°46'0 0.0
2017-Jun-05 16:58N 45°39' W 122°46'0 0.0
2017-Jun-05 16:28N 45°39' W 122°46'0 0.0
2017-Jun-05 15:58N 45°39' W 122°46'0 0.0
2017-Jun-05 15:28N 45°39' W 122°46'0 0.0
2017-Jun-05 14:58N 45°39' W 122°46'0 0.0
2017-Jun-05 13:58N 45°39' W 122°46'0 0.0
2017-Jun-05 13:25N 45°39' W 122°46'0 0.0
2017-Jun-05 12:52N 45°39' W 122°46'0 0.1
2017-Jun-05 12:28N 45°39' W 122°46'0 0.1
2017-Jun-05 11:58N 45°39' W 122°46'0 0.0
2017-Jun-05 11:28N 45°39' W 122°46'0 0.0
2017-Jun-05 10:58N 45°39' W 122°46'0 0.0
2017-Jun-05 10:28N 45°39' W 122°46'0 0.0
2017-Jun-05 09:58N 45°39' W 122°46'0 0.0
2017-Jun-05 09:28N 45°39' W 122°46'0 0.0
2017-Jun-05 08:58N 45°39' W 122°46'0 0.0
2017-Jun-05 08:28N 45°39' W 122°46'0 0.0
2017-Jun-05 07:58N 45°39' W 122°46'0 0.0
2017-Jun-05 07:28N 45°39' W 122°46'0 0.0
2017-Jun-05 06:58N 45°39' W 122°46'0 0.0
2017-Jun-05 06:28N 45°39' W 122°46'0 0.0
2017-Jun-05 05:52N 45°39' W 122°46'0 0.0
2017-Jun-05 05:28N 45°39' W 122°46'0 0.0
2017-Jun-05 04:55N 45°39' W 122°46'0 0.0
2017-Jun-05 04:25N 45°39' W 122°46'0 0.0
2017-Jun-05 03:55N 45°39' W 122°46'0 0.0
2017-Jun-05 03:28N 45°39' W 122°46'0 0.0
2017-Jun-05 02:13N 45°38' W 122°46'0 0.2
2017-Jun-05 01:58N 45°39' W 122°46'0 0.0
2017-Jun-05 01:28N 45°39' W 122°46'0 0.0
2017-Jun-05 00:52N 45°39' W 122°46'0 0.1
2017-Jun-05 00:16N 45°39' W 122°46'0 0.0
2017-Jun-04 23:58N 45°39' W 122°46'0 0.0
2017-Jun-04 23:28N 45°39' W 122°46'0 0.0
2017-Jun-04 22:58N 45°39' W 122°46'0 0.0
2017-Jun-04 22:28N 45°39' W 122°46'0 0.0
2017-Jun-04 21:58N 45°39' W 122°46'0 0.0
2017-Jun-04 21:28N 45°39' W 122°46'0 0.0
2017-Jun-04 20:58N 45°39' W 122°46'0 0.0
2017-Jun-04 20:25N 45°39' W 122°46'0 0.0
2017-Jun-04 19:52N 45°39' W 122°46'0 0.0
2017-Jun-04 19:28N 45°39' W 122°46'0 0.1
2017-Jun-04 18:58N 45°39' W 122°46'0 0.0
2017-Jun-04 18:28N 45°39' W 122°46'0 0.0
2017-Jun-04 17:58N 45°39' W 122°46'0 0.0
2017-Jun-04 17:28N 45°39' W 122°46'0 0.0
2017-Jun-04 16:55N 45°39' W 122°46'0 0.0
2017-Jun-04 16:22N 45°39' W 122°46'0 0.1
2017-Jun-04 15:46N 45°39' W 122°46'0 0.0
2017-Jun-04 15:28N 45°39' W 122°46'0 0.0
2017-Jun-04 14:58N 45°39' W 122°46'0 0.0
2017-Jun-04 13:58N 45°39' W 122°46'0 0.0
2017-Jun-04 13:28N 45°39' W 122°46'0 0.0
2017-Jun-04 12:55N 45°39' W 122°46'0 0.0
2017-Jun-04 12:28N 45°39' W 122°46'0 0.0
2017-Jun-04 11:58N 45°39' W 122°46'0 0.0
2017-Jun-04 11:22N 45°39' W 122°46'0 0.0
2017-Jun-04 10:55N 45°39' W 122°46'0 0.0
2017-Jun-04 10:28N 45°39' W 122°46'0 0.0
2017-Jun-04 09:55N 45°39' W 122°46'0 0.0
2017-Jun-04 09:25N 45°39' W 122°46'0 0.0
2017-Jun-04 08:58N 45°39' W 122°46'0 0.0
2017-Jun-04 08:28N 45°39' W 122°46'0 0.0
2017-Jun-04 07:58N 45°39' W 122°46'0 0.0
2017-Jun-04 07:25N 45°39' W 122°46'0 0.0
2017-Jun-04 06:55N 45°39' W 122°46'0 0.0
2017-Jun-04 06:28N 45°39' W 122°46'0 0.0
2017-Jun-04 05:55N 45°39' W 122°46'0 0.0
2017-Jun-04 05:25N 45°39' W 122°46'0 0.0
2017-Jun-04 04:58N 45°39' W 122°46'0 0.0
2017-Jun-04 04:28N 45°39' W 122°46'0 0.0
2017-Jun-04 03:49N 45°39' W 122°46'0 0.0
2017-Jun-04 03:28N 45°39' W 122°46'0 0.0
2017-Jun-04 02:58N 45°39' W 122°46'0 0.0
2017-Jun-04 01:46N 45°39' W 122°46'0 0.1
2017-Jun-04 01:28N 45°39' W 122°46'0 0.1
2017-Jun-04 00:58N 45°39' W 122°46'0 0.0
2017-Jun-04 00:28N 45°39' W 122°46'0 0.0
2017-Jun-03 23:52N 45°39' W 122°46'0 0.1
2017-Jun-03 23:25N 45°39' W 122°46'0 0.1
2017-Jun-03 22:58N 45°39' W 122°46'0 0.1
2017-Jun-03 22:28N 45°39' W 122°46'0 0.1
2017-Jun-03 21:55N 45°39' W 122°46'2 3.8
2017-Jun-03 21:30N 45°40' W 122°46'3 4.8
2017-Jun-03 20:58N 45°43' W 122°46'0 0.2
2017-Jun-03 20:28N 45°43' W 122°46'0 0.0
2017-Jun-03 19:58N 45°43' W 122°46'0 0.0
2017-Jun-03 19:28N 45°43' W 122°46'0 0.0
2017-Jun-03 18:58N 45°43' W 122°46'0 0.0
2017-Jun-03 18:28N 45°43' W 122°46'0 0.0
2017-Jun-03 17:58N 45°43' W 122°46'0 0.0
2017-Jun-03 17:22N 45°43' W 122°46'0 0.0
2017-Jun-03 16:58N 45°43' W 122°46'0 0.0
2017-Jun-03 16:28N 45°43' W 122°46'0 0.0
2017-Jun-03 15:58N 45°43' W 122°46'0 0.0
2017-Jun-03 15:28N 45°43' W 122°46'0 0.0
2017-Jun-03 14:58N 45°43' W 122°46'0 0.0
2017-Jun-03 13:55N 45°43' W 122°46'0 0.0
2017-Jun-03 13:28N 45°43' W 122°46'0 0.0
2017-Jun-03 12:58N 45°43' W 122°46'0 0.0
2017-Jun-03 12:28N 45°43' W 122°46'0 0.0
2017-Jun-03 11:49N 45°43' W 122°46'0 0.0
2017-Jun-03 11:28N 45°43' W 122°46'0 0.0
2017-Jun-03 10:58N 45°43' W 122°46'0 0.0
2017-Jun-03 10:28N 45°43' W 122°46'0 0.0
2017-Jun-03 09:58N 45°43' W 122°46'0 0.0
2017-Jun-03 09:28N 45°43' W 122°46'0 0.0
2017-Jun-03 08:58N 45°43' W 122°46'0 0.0
2017-Jun-03 08:28N 45°43' W 122°46'0 0.0
2017-Jun-03 07:58N 45°43' W 122°46'0 0.0
2017-Jun-03 07:28N 45°43' W 122°46'0 0.0
2017-Jun-03 06:58N 45°43' W 122°46'0 0.0
2017-Jun-03 06:28N 45°43' W 122°46'0 0.0
2017-Jun-03 05:58N 45°43' W 122°46'0 0.0
2017-Jun-03 05:19N 45°43' W 122°46'0 0.0
2017-Jun-03 04:58N 45°43' W 122°46'0 0.0
2017-Jun-03 04:25N 45°43' W 122°46'0 0.0
2017-Jun-03 03:55N 45°43' W 122°46'0 0.0
2017-Jun-03 03:28N 45°43' W 122°46'0 0.0
2017-Jun-03 02:55N 45°43' W 122°46'0 0.0
2017-Jun-03 02:28N 45°43' W 122°46'0 0.0
2017-Jun-03 01:58N 45°43' W 122°46'0 0.0
2017-Jun-03 01:28N 45°43' W 122°46'0 0.0
2017-Jun-03 00:55N 45°43' W 122°46'0 0.0
2017-Jun-03 00:19N 45°43' W 122°46'0 0.0
2017-Jun-02 23:58N 45°43' W 122°46'0 0.0
2017-Jun-02 23:28N 45°43' W 122°46'0 0.0
2017-Jun-02 22:55N 45°43' W 122°46'0 0.0
2017-Jun-02 22:22N 45°43' W 122°46'0 0.0
2017-Jun-02 21:58N 45°43' W 122°46'0 0.0
2017-Jun-02 21:28N 45°43' W 122°46'0 0.0
2017-Jun-02 20:58N 45°43' W 122°46'0 0.0
2017-Jun-02 20:28N 45°43' W 122°46'0 0.0
2017-Jun-02 19:58N 45°43' W 122°46'0 0.0
2017-Jun-02 19:28N 45°43' W 122°46'0 0.0
2017-Jun-02 18:58N 45°43' W 122°46'0 0.0
2017-Jun-02 18:28N 45°43' W 122°46'0 0.0
2017-Jun-02 17:58N 45°43' W 122°46'0 0.0
2017-Jun-02 17:28N 45°43' W 122°46'0 0.0
2017-Jun-02 16:58N 45°43' W 122°46'0 0.0
2017-Jun-02 16:28N 45°43' W 122°46'0 0.0
2017-Jun-02 15:58N 45°43' W 122°46'0 0.0
2017-Jun-02 15:28N 45°43' W 122°46'0 0.0
2017-Jun-02 14:52N 45°43' W 122°46'0 0.0
2017-Jun-02 14:28N 45°43' W 122°46'0 0.0
2017-Jun-02 13:25N 45°43' W 122°46'0 0.0
2017-Jun-02 12:55N 45°43' W 122°46'0 0.0
2017-Jun-02 12:28N 45°43' W 122°46'0 0.0
2017-Jun-02 11:58N 45°43' W 122°46'0 0.0
2017-Jun-02 11:25N 45°43' W 122°46'0 0.0
2017-Jun-02 10:58N 45°43' W 122°46'0 0.0
2017-Jun-02 10:28N 45°43' W 122°46'0 0.0
2017-Jun-02 09:55N 45°43' W 122°46'0 0.0
2017-Jun-02 09:28N 45°43' W 122°46'0 0.0
2017-Jun-02 08:58N 45°43' W 122°46'0 0.0
2017-Jun-02 08:28N 45°43' W 122°46'0 0.0
2017-Jun-02 07:58N 45°43' W 122°46'0 0.0
2017-Jun-02 07:25N 45°43' W 122°46'0 0.0
2017-Jun-02 06:58N 45°43' W 122°46'0 0.0
2017-Jun-02 06:28N 45°43' W 122°46'0 0.0
2017-Jun-02 05:58N 45°43' W 122°46'0 0.0
2017-Jun-02 05:28N 45°43' W 122°46'0 0.0
2017-Jun-02 04:58N 45°43' W 122°46'0 0.0
2017-Jun-02 04:28N 45°43' W 122°46'0 0.0
2017-Jun-02 03:52N 45°43' W 122°46'0 0.0
2017-Jun-02 03:25N 45°43' W 122°46'0 0.0
2017-Jun-02 02:58N 45°43' W 122°46'0 0.0
2017-Jun-02 02:28N 45°43' W 122°46'0 0.0
2017-Jun-02 01:55N 45°43' W 122°46'0 0.0
2017-Jun-02 01:28N 45°43' W 122°46'0 0.0
2017-Jun-02 00:58N 45°43' W 122°46'0 0.0
2017-Jun-02 00:28N 45°43' W 122°46'0 0.0
2017-Jun-01 23:58N 45°43' W 122°46'0 0.0
2017-Jun-01 23:28N 45°43' W 122°46'0 0.0
2017-Jun-01 22:55N 45°43' W 122°46'0 0.0
2017-Jun-01 22:28N 45°43' W 122°46'0 0.0
2017-Jun-01 21:58N 45°43' W 122°46'0 0.0
2017-Jun-01 21:22N 45°43' W 122°46'0 0.0
2017-Jun-01 20:58N 45°43' W 122°46'0 0.0
2017-Jun-01 20:28N 45°43' W 122°46'0 0.0
2017-Jun-01 19:58N 45°43' W 122°46'0 0.0
2017-Jun-01 19:25N 45°43' W 122°46'0 0.0
2017-Jun-01 18:58N 45°43' W 122°46'0 0.0
2017-Jun-01 18:28N 45°43' W 122°46'0 0.1
2017-Jun-01 17:58N 45°43' W 122°46'0 0.1
2017-Jun-01 17:25N 45°43' W 122°46'0 0.0
2017-Jun-01 16:55N 45°43' W 122°46'0 0.0
2017-Jun-01 16:28N 45°43' W 122°46'0 0.0
2017-Jun-01 15:58N 45°43' W 122°46'0 0.0
2017-Jun-01 15:28N 45°43' W 122°46'0 0.0
2017-Jun-01 14:58N 45°43' W 122°46'0 0.0
2017-Jun-01 13:58N 45°43' W 122°46'0 0.0
2017-Jun-01 13:28N 45°43' W 122°46'0 0.0
2017-Jun-01 13:00N 45°43' W 122°46'0 0.0
2017-Jun-01 12:28N 45°43' W 122°46'0 0.1
2017-Jun-01 11:58N 45°43' W 122°46'0 0.1
2017-Jun-01 11:28N 45°43' W 122°46'0 0.0
2017-Jun-01 10:58N 45°43' W 122°46'0 0.0
2017-Jun-01 10:28N 45°43' W 122°46'0 0.0
2017-Jun-01 09:58N 45°43' W 122°46'0 0.0
2017-Jun-01 09:22N 45°43' W 122°46'0 0.0
2017-Jun-01 08:58N 45°43' W 122°46'0 0.0
2017-Jun-01 08:28N 45°43' W 122°46'0 0.0
2017-Jun-01 07:55N 45°43' W 122°46'0 0.0
2017-Jun-01 07:28N 45°43' W 122°46'0 0.0
2017-Jun-01 06:58N 45°43' W 122°46'0 0.1
2017-Jun-01 06:28N 45°43' W 122°46'0 0.1
2017-Jun-01 05:58N 45°43' W 122°46'0 0.0
2017-Jun-01 05:28N 45°43' W 122°46'0 0.0
2017-Jun-01 04:58N 45°43' W 122°46'0 0.0
2017-Jun-01 04:28N 45°43' W 122°46'0 0.0
2017-Jun-01 03:58N 45°43' W 122°46'0 0.0
2017-Jun-01 03:25N 45°43' W 122°46'0 0.0
2017-Jun-01 02:58N 45°43' W 122°46'0 0.0
2017-Jun-01 02:28N 45°43' W 122°46'0 0.0
2017-Jun-01 01:58N 45°43' W 122°46'0 0.0
2017-Jun-01 01:28N 45°43' W 122°46'0 0.0
2017-Jun-01 00:58N 45°43' W 122°46'0 0.0
2017-Jun-01 00:28N 45°43' W 122°46'0 0.0
2017-May-31 23:58N 45°43' W 122°46'0 0.0
2017-May-31 23:25N 45°43' W 122°46'0 0.0
2017-May-31 22:58N 45°43' W 122°46'0 0.0
2017-May-31 22:28N 45°43' W 122°46'0 0.0
2017-May-31 21:58N 45°43' W 122°46'0 0.0
2017-May-31 21:28N 45°43' W 122°46'0 0.0
2017-May-31 20:58N 45°43' W 122°46'0 0.0
2017-May-31 20:28N 45°43' W 122°46'0 0.0
2017-May-31 19:55N 45°43' W 122°46'0 0.0
2017-May-31 19:30N 45°43' W 122°46'0 0.4
2017-May-31 19:01N 45°43' W 122°46'4 8.6
2017-May-31 18:30N 45°47' W 122°47'5 9.7
2017-May-31 18:01N 45°52' W 122°47'510.0
2017-May-31 17:30N 45°57' W 122°48'5 9.5
2017-May-31 17:01N 46°01' W 122°52'1 0.9
2017-May-31 16:25N 46°02' W 122°52'0 0.0
2017-May-31 15:58N 46°02' W 122°52'0 0.0
2017-May-31 15:25N 46°02' W 122°52'0 0.0
2017-May-31 14:58N 46°02' W 122°52'0 0.0
2017-May-31 13:58N 46°02' W 122°52'0 0.0
2017-May-31 13:28N 46°02' W 122°52'0 0.0
2017-May-31 12:58N 46°02' W 122°52'0 0.0
2017-May-31 12:28N 46°02' W 122°52'0 0.0
2017-May-31 11:55N 46°02' W 122°52'0 0.0
2017-May-31 11:25N 46°02' W 122°52'0 0.0
2017-May-31 10:58N 46°02' W 122°52'0 0.0
2017-May-31 10:25N 46°02' W 122°52'0 0.0
2017-May-31 09:58N 46°02' W 122°52'0 0.0
2017-May-31 09:28N 46°02' W 122°52'0 0.0
2017-May-31 08:58N 46°02' W 122°52'0 0.0
2017-May-31 08:28N 46°02' W 122°52'0 0.0
2017-May-31 07:58N 46°02' W 122°52'0 0.0
2017-May-31 07:28N 46°02' W 122°52'0 0.0
2017-May-31 06:58N 46°02' W 122°52'0 0.0
2017-May-31 06:28N 46°02' W 122°52'0 0.0
2017-May-31 05:58N 46°02' W 122°52'0 0.0
2017-May-31 05:28N 46°02' W 122°52'0 0.0
2017-May-31 04:55N 46°02' W 122°52'0 0.0
2017-May-31 04:28N 46°02' W 122°52'0 0.0
2017-May-31 03:58N 46°02' W 122°52'0 0.0
2017-May-31 03:28N 46°02' W 122°52'0 0.0
2017-May-31 02:58N 46°02' W 122°52'0 0.0
2017-May-31 02:25N 46°02' W 122°52'0 0.0
2017-May-31 01:58N 46°02' W 122°52'0 0.0
2017-May-31 01:28N 46°02' W 122°52'0 0.0
2017-May-31 00:58N 46°02' W 122°52'1 2.6
2017-May-31 00:30N 46°03' W 122°53'4 8.0
2017-May-31 00:00N 46°06' W 122°57'5 9.1
2017-May-30 23:30N 46°09' W 123°02'510.5
2017-May-30 23:00N 46°11' W 123°08'5 9.8
2017-May-30 22:31N 46°10' W 123°15'510.0
2017-May-30 22:00N 46°09' W 123°22'4 8.1
2017-May-30 21:31N 46°12' W 123°26'5 9.5
2017-May-30 21:01N 46°16' W 123°28'510.6
2017-May-30 20:30N 46°15' W 123°36'510.0
2017-May-30 20:01N 46°14' W 123°43'5 7.7
2017-May-30 19:25N 46°12' W 123°49'0 0.2
2017-May-30 18:58N 46°12' W 123°49'0 0.0
2017-May-30 18:25N 46°12' W 123°49'0 0.0
2017-May-30 17:58N 46°12' W 123°49'0 0.0
2017-May-30 17:28N 46°12' W 123°49'0 0.0
2017-May-30 16:58N 46°12' W 123°49'0 0.0
2017-May-30 16:28N 46°12' W 123°49'0 0.0
2017-May-30 15:58N 46°12' W 123°49'0 0.0
2017-May-30 15:28N 46°12' W 123°49'0 0.0
2017-May-30 14:58N 46°12' W 123°49'0 0.0
2017-May-30 13:55N 46°12' W 123°49'0 0.0
2017-May-30 13:28N 46°12' W 123°49'0 0.2
2017-May-30 12:58N 46°12' W 123°49'0 0.3
2017-May-30 12:28N 46°12' W 123°48'0 0.1
2017-May-30 11:58N 46°12' W 123°48'0 0.0
2017-May-30 11:28N 46°12' W 123°48'0 0.0
2017-May-30 10:58N 46°12' W 123°48'0 0.0
2017-May-30 10:28N 46°12' W 123°48'0 0.0
2017-May-30 09:58N 46°12' W 123°48'0 0.0
2017-May-30 09:28N 46°12' W 123°48'0 0.0
2017-May-30 08:58N 46°12' W 123°48'0 0.2
2017-May-30 08:25N 46°12' W 123°48'0 0.2
2017-May-30 07:58N 46°12' W 123°49'0 0.0
2017-May-30 07:28N 46°12' W 123°49'0 0.0
2017-May-30 06:58N 46°12' W 123°49'0 0.1
2017-May-30 06:28N 46°12' W 123°49'0 0.0
2017-May-30 05:58N 46°12' W 123°49'0 0.0
2017-May-30 05:28N 46°12' W 123°49'0 0.0
2017-May-30 04:55N 46°12' W 123°49'0 0.0
2017-May-30 04:28N 46°12' W 123°49'0 0.1
2017-May-30 03:58N 46°12' W 123°49'0 0.0
2017-May-30 03:28N 46°12' W 123°49'0 0.0
2017-May-30 02:58N 46°12' W 123°49'0 0.0
2017-May-30 02:28N 46°12' W 123°49'0 0.1
2017-May-30 01:58N 46°12' W 123°49'0 0.3
2017-May-30 01:28N 46°12' W 123°48'0 0.2
2017-May-30 00:58N 46°12' W 123°48'0 0.0
2017-May-30 00:28N 46°12' W 123°48'0 0.0
2017-May-29 23:58N 46°12' W 123°48'0 0.0
2017-May-29 23:28N 46°12' W 123°48'0 0.1
2017-May-29 22:58N 46°12' W 123°48'0 0.0
2017-May-29 22:25N 46°12' W 123°48'0 0.1
2017-May-29 21:58N 46°12' W 123°48'0 0.1
2017-May-29 21:28N 46°12' W 123°48'0 0.0
2017-May-29 20:58N 46°12' W 123°48'0 0.3
2017-May-29 20:28N 46°12' W 123°49'0 0.1
2017-May-29 19:58N 46°12' W 123°49'0 0.0
2017-May-29 19:28N 46°12' W 123°49'0 0.1
2017-May-29 18:58N 46°12' W 123°49'0 0.0
2017-May-29 18:25N 46°12' W 123°49'0 0.0
2017-May-29 17:58N 46°12' W 123°49'0 0.0
2017-May-29 17:28N 46°12' W 123°49'0 0.0
2017-May-29 16:58N 46°12' W 123°49'0 0.0
2017-May-29 16:28N 46°12' W 123°49'0 0.0
2017-May-29 15:58N 46°12' W 123°49'0 0.0
2017-May-29 15:28N 46°12' W 123°49'0 0.0
2017-May-29 14:58N 46°12' W 123°49'0 0.0
2017-May-29 13:58N 46°12' W 123°49'0 0.0
2017-May-29 13:28N 46°12' W 123°49'0 0.0
2017-May-29 12:58N 46°12' W 123°49'0 0.1
2017-May-29 12:28N 46°12' W 123°49'0 0.1
2017-May-29 11:58N 46°12' W 123°49'0 0.3
2017-May-29 11:28N 46°12' W 123°48'0 0.1
2017-May-29 10:58N 46°12' W 123°48'0 0.0
2017-May-29 10:28N 46°12' W 123°48'0 0.0
2017-May-29 09:58N 46°12' W 123°48'0 0.0
2017-May-29 09:28N 46°12' W 123°48'0 0.0
2017-May-29 08:58N 46°12' W 123°48'0 0.0
2017-May-29 08:28N 46°12' W 123°48'0 0.0
2017-May-29 07:58N 46°12' W 123°48'0 0.1
2017-May-29 07:28N 46°12' W 123°48'0 0.3
2017-May-29 06:58N 46°12' W 123°49'0 0.1
2017-May-29 06:28N 46°12' W 123°49'0 0.0
2017-May-29 05:58N 46°12' W 123°49'0 0.0
2017-May-29 05:28N 46°12' W 123°49'0 0.1
2017-May-29 04:58N 46°12' W 123°49'0 0.0
2017-May-29 04:28N 46°12' W 123°49'0 0.1
2017-May-29 03:58N 46°12' W 123°49'0 0.1
2017-May-29 03:28N 46°12' W 123°49'0 0.0
2017-May-29 02:58N 46°12' W 123°49'0 0.1
2017-May-29 02:28N 46°12' W 123°49'0 0.0
2017-May-29 01:58N 46°12' W 123°49'0 0.0
2017-May-29 01:28N 46°12' W 123°49'0 0.2
2017-May-29 00:58N 46°12' W 123°48'0 0.3
2017-May-29 00:28N 46°12' W 123°48'0 0.0
2017-May-28 23:58N 46°12' W 123°48'0 0.0
2017-May-28 23:28N 46°12' W 123°48'0 0.0
2017-May-28 22:58N 46°12' W 123°48'0 0.0
2017-May-28 22:28N 46°12' W 123°48'0 0.0
2017-May-28 21:58N 46°12' W 123°48'0 0.1
2017-May-28 21:28N 46°12' W 123°48'0 0.1
2017-May-28 20:58N 46°12' W 123°48'0 0.0
2017-May-28 20:28N 46°12' W 123°48'0 0.1
2017-May-28 19:58N 46°12' W 123°48'0 0.3
2017-May-28 19:28N 46°12' W 123°49'0 0.1
2017-May-28 18:58N 46°12' W 123°49'0 0.0
2017-May-28 18:28N 46°12' W 123°49'0 0.0
2017-May-28 17:58N 46°12' W 123°49'0 0.0
2017-May-28 17:28N 46°12' W 123°49'0 0.0
2017-May-28 16:58N 46°12' W 123°49'0 0.0
2017-May-28 16:28N 46°12' W 123°49'0 0.0
2017-May-28 15:58N 46°12' W 123°49'0 0.0
2017-May-28 15:28N 46°12' W 123°49'0 0.0
2017-May-28 14:58N 46°12' W 123°49'0 0.0
2017-May-28 13:58N 46°12' W 123°49'0 0.0
2017-May-28 13:25N 46°12' W 123°49'0 0.0
2017-May-28 12:58N 46°12' W 123°49'0 0.1
2017-May-28 12:28N 46°12' W 123°49'0 0.0
2017-May-28 11:58N 46°12' W 123°49'0 0.1
2017-May-28 11:28N 46°12' W 123°49'0 0.3
2017-May-28 10:55N 46°12' W 123°48'0 0.1
2017-May-28 10:28N 46°12' W 123°48'0 0.1
2017-May-28 09:58N 46°12' W 123°48'0 0.0
2017-May-28 09:28N 46°12' W 123°48'0 0.0
2017-May-28 08:58N 46°12' W 123°48'0 0.0
2017-May-28 08:28N 46°12' W 123°48'0 0.0
2017-May-28 07:58N 46°12' W 123°48'0 0.0
2017-May-28 07:28N 46°12' W 123°48'0 0.0
2017-May-28 06:58N 46°12' W 123°48'0 0.0
2017-May-28 06:25N 46°12' W 123°48'0 0.3
2017-May-28 05:58N 46°12' W 123°49'0 0.1
2017-May-28 05:28N 46°12' W 123°49'0 0.1
2017-May-28 04:58N 46°12' W 123°49'0 0.0
2017-May-28 04:28N 46°12' W 123°49'  

Dump ship's entire track history